createdAt,value
2022-09-26T00:01:37.697Z,9.50
2022-09-26T00:04:15.716Z,9.60
2022-09-26T00:06:43.470Z,9.60
2022-09-26T00:09:11.071Z,9.60
2022-09-26T00:11:39.430Z,9.70
2022-09-26T00:14:12.492Z,9.80
2022-09-26T00:16:40.098Z,9.90
2022-09-26T00:19:08.223Z,9.90
2022-09-26T00:21:36.028Z,10.00
2022-09-26T00:24:04.270Z,10.00
2022-09-26T00:26:33.612Z,10.10
2022-09-26T00:29:10.314Z,10.20
2022-09-26T00:31:44.285Z,10.20
2022-09-26T00:34:14.616Z,10.30
2022-09-26T00:36:42.074Z,10.30
2022-09-26T00:39:12.449Z,10.30
2022-09-26T00:41:39.900Z,10.40
2022-09-26T00:44:35.363Z,10.40
2022-09-26T00:47:03.905Z,10.40
2022-09-26T00:49:38.517Z,10.40
2022-09-26T00:52:13.074Z,10.30
2022-09-26T00:54:45.300Z,10.30
2022-09-26T00:57:20.656Z,10.30
2022-09-26T00:59:56.205Z,10.40
2022-09-26T01:02:25.961Z,10.40
2022-09-26T01:04:54.271Z,10.40
2022-09-26T01:07:24.463Z,10.40
2022-09-26T01:09:52.430Z,10.40
2022-09-26T01:12:21.107Z,10.50
2022-09-26T01:14:52.441Z,10.50
2022-09-26T01:17:24.748Z,10.40
2022-09-26T01:20:34.546Z,10.40
2022-09-26T01:23:29.543Z,10.50
2022-09-26T01:26:00.069Z,10.50
2022-09-26T01:28:58.896Z,10.50
2022-09-26T01:32:11.952Z,10.50
2022-09-26T01:35:09.970Z,10.50
2022-09-26T01:37:40.395Z,10.60
2022-09-26T01:40:45.310Z,10.60
2022-09-26T01:43:21.770Z,10.60
2022-09-26T01:46:20.455Z,10.60
2022-09-26T01:48:55.472Z,10.70
2022-09-26T01:51:38.649Z,10.80
2022-09-26T01:54:15.446Z,10.80
2022-09-26T01:56:44.439Z,10.80
2022-09-26T01:59:20.422Z,10.80
2022-09-26T02:01:55.355Z,10.80
2022-09-26T02:04:29.322Z,10.90
2022-09-26T02:07:15.300Z,10.80
2022-09-26T02:09:45.494Z,10.90
2022-09-26T02:12:34.023Z,10.90
2022-09-26T02:15:06.117Z,10.90
2022-09-26T02:17:37.850Z,10.90
2022-09-26T02:20:11.584Z,11.00
2022-09-26T02:22:39.457Z,11.00
2022-09-26T02:25:08.412Z,11.00
2022-09-26T02:27:35.735Z,11.00
2022-09-26T02:30:05.730Z,11.00
2022-09-26T02:32:33.553Z,11.00
2022-09-26T02:35:22.171Z,11.10
2022-09-26T02:37:50.019Z,11.00
2022-09-26T02:40:20.205Z,11.10
2022-09-26T02:42:55.077Z,11.00
2022-09-26T02:46:11.632Z,11.10
2022-09-26T02:48:51.358Z,11.10
2022-09-26T02:51:49.758Z,11.10
2022-09-26T02:54:44.221Z,11.10
2022-09-26T02:57:22.433Z,11.10
2022-09-26T03:00:08.422Z,11.10
2022-09-26T03:02:43.101Z,11.00
2022-09-26T03:05:20.455Z,11.00
2022-09-26T03:08:15.754Z,11.00
2022-09-26T03:10:45.419Z,11.00
2022-09-26T03:13:17.011Z,10.90
2022-09-26T03:15:50.473Z,10.80
2022-09-26T03:18:22.623Z,10.80
2022-09-26T03:20:53.032Z,10.70
2022-09-26T03:23:34.090Z,10.80
2022-09-26T03:26:16.800Z,10.80
2022-09-26T03:28:53.863Z,10.80
2022-09-26T03:31:22.337Z,10.80
2022-09-26T03:33:55.888Z,10.80
2022-09-26T03:36:23.390Z,10.70
2022-09-26T03:38:51.128Z,10.70
2022-09-26T03:41:42.155Z,10.70
2022-09-26T03:44:29.854Z,10.70
2022-09-26T03:47:18.144Z,10.60
2022-09-26T03:49:49.468Z,10.60
2022-09-26T03:52:16.963Z,10.70
2022-09-26T03:54:45.723Z,10.70
2022-09-26T03:57:16.124Z,10.80
2022-09-26T03:59:51.361Z,10.70
2022-09-26T04:02:20.749Z,10.70
2022-09-26T04:04:52.883Z,10.70
2022-09-26T04:07:20.227Z,10.70
2022-09-26T04:09:47.567Z,10.70
2022-09-26T04:12:15.114Z,10.70
2022-09-26T04:14:44.632Z,10.70
2022-09-26T04:17:12.742Z,10.70
2022-09-26T04:19:43.523Z,10.60
2022-09-26T04:22:11.022Z,10.70
2022-09-26T04:24:39.356Z,10.60
2022-09-26T04:27:08.526Z,10.60
2022-09-26T04:29:36.492Z,10.70
2022-09-26T04:32:30.528Z,10.60
2022-09-26T04:35:16.199Z,10.60
2022-09-26T04:37:43.519Z,10.50
2022-09-26T04:40:11.317Z,10.60
2022-09-26T04:42:44.030Z,10.60
2022-09-26T04:45:11.439Z,10.60
2022-09-26T04:47:38.790Z,10.60
2022-09-26T04:50:24.724Z,10.70
2022-09-26T04:53:12.281Z,10.70
2022-09-26T04:55:47.122Z,10.70
2022-09-26T04:58:16.610Z,10.70
2022-09-26T05:00:45.534Z,10.70
2022-09-26T05:03:15.586Z,10.80
2022-09-26T05:05:50.298Z,10.70
2022-09-26T05:08:17.707Z,10.80
2022-09-26T05:10:51.655Z,10.80
2022-09-26T05:13:19.239Z,10.80
2022-09-26T05:15:48.695Z,10.80
2022-09-26T05:18:16.391Z,10.80
2022-09-26T05:20:48.253Z,10.70
2022-09-26T05:23:42.121Z,10.70
2022-09-26T05:26:24.619Z,10.60
2022-09-26T05:29:08.771Z,10.60
2022-09-26T05:31:44.727Z,10.60
2022-09-26T05:34:19.237Z,10.60
2022-09-26T05:36:47.455Z,10.70
2022-09-26T05:39:33.226Z,10.80
2022-09-26T05:42:00.594Z,10.80
2022-09-26T05:44:28.749Z,10.80
2022-09-26T05:46:57.597Z,10.80
2022-09-26T05:49:27.712Z,10.90
2022-09-26T05:51:55.077Z,10.90
2022-09-26T05:54:22.537Z,10.90
2022-09-26T05:56:52.301Z,10.90
2022-09-26T05:59:38.251Z,10.90
2022-09-26T06:02:34.863Z,10.90
2022-09-26T06:05:14.342Z,10.90
2022-09-26T06:08:03.618Z,11.00
2022-09-26T06:10:44.782Z,11.00
2022-09-26T06:13:15.285Z,11.00
2022-09-26T06:15:52.632Z,11.00
2022-09-26T06:18:20.912Z,11.10
2022-09-26T06:20:48.230Z,11.10
2022-09-26T06:23:15.542Z,11.10
2022-09-26T06:25:45.591Z,11.10
2022-09-26T06:28:13.334Z,11.10
2022-09-26T06:30:40.708Z,11.20
2022-09-26T06:33:13.491Z,11.20
2022-09-26T06:36:04.001Z,11.20
2022-09-26T06:38:35.637Z,11.20
2022-09-26T06:41:08.497Z,11.20
2022-09-26T06:43:36.103Z,11.20
2022-09-26T06:46:09.542Z,11.20
2022-09-26T06:48:58.036Z,11.20
2022-09-26T06:51:43.335Z,11.20
2022-09-26T06:54:10.913Z,11.20
2022-09-26T06:56:38.146Z,11.20
2022-09-26T06:59:06.727Z,11.10
2022-09-26T07:01:36.197Z,11.10
2022-09-26T07:04:10.250Z,11.10
2022-09-26T07:07:05.555Z,11.00
2022-09-26T07:09:33.763Z,11.10
2022-09-26T07:12:16.999Z,11.10
2022-09-26T07:14:44.633Z,11.10
2022-09-26T07:17:21.282Z,11.20
2022-09-26T07:20:16.139Z,11.20
2022-09-26T07:23:09.258Z,11.30
2022-09-26T07:25:39.456Z,11.40
2022-09-26T07:28:09.068Z,11.40
2022-09-26T07:30:43.250Z,11.50
2022-09-26T07:33:16.159Z,11.40
2022-09-26T07:35:48.374Z,11.40
2022-09-26T07:38:16.251Z,11.40
2022-09-26T07:40:50.019Z,11.40
2022-09-26T07:43:24.141Z,11.30
2022-09-26T07:46:22.010Z,11.30
2022-09-26T07:49:10.429Z,11.30
2022-09-26T07:51:57.412Z,11.30
2022-09-26T07:54:35.151Z,11.40
2022-09-26T07:57:20.931Z,11.50
2022-09-26T08:00:21.228Z,11.50
2022-09-26T08:03:05.093Z,11.60
2022-09-26T08:05:36.125Z,11.50
2022-09-26T08:08:04.837Z,11.60
2022-09-26T08:10:50.764Z,11.60
2022-09-26T08:13:36.779Z,11.70
2022-09-26T08:16:29.468Z,11.70
2022-09-26T08:19:01.518Z,11.80
2022-09-26T08:21:29.554Z,11.90
2022-09-26T08:23:58.240Z,11.90
2022-09-26T08:26:44.818Z,11.90
2022-09-26T08:29:26.419Z,11.80
2022-09-26T08:31:55.559Z,11.90
2022-09-26T08:34:25.698Z,11.90
2022-09-26T08:37:13.809Z,12.00
2022-09-26T08:40:04.124Z,12.10
2022-09-26T08:43:04.834Z,12.20
2022-09-26T08:46:10.505Z,12.30
2022-09-26T08:49:23.296Z,12.30
2022-09-26T08:51:54.020Z,12.20
2022-09-26T08:54:36.911Z,12.20
2022-09-26T08:57:13.040Z,12.20
2022-09-26T08:59:43.709Z,12.30
2022-09-26T09:02:28.373Z,12.20
2022-09-26T09:05:10.046Z,12.00
2022-09-26T09:07:42.097Z,11.90
2022-09-26T09:10:17.858Z,11.90
2022-09-26T09:13:25.145Z,11.80
2022-09-26T09:16:38.682Z,11.80
2022-09-26T09:19:41.339Z,11.60
2022-09-26T09:22:25.798Z,11.60
2022-09-26T09:25:10.125Z,11.70
2022-09-26T09:28:00.088Z,11.70
2022-09-26T09:30:48.358Z,11.80
2022-09-26T09:33:49.545Z,11.90
2022-09-26T09:36:40.429Z,12.20
2022-09-26T09:39:22.177Z,12.40
2022-09-26T09:42:01.935Z,12.60
2022-09-26T09:44:47.027Z,12.70
2022-09-26T09:47:16.875Z,12.80
2022-09-26T09:49:47.069Z,12.80
2022-09-26T09:52:46.147Z,12.70
2022-09-26T09:55:31.380Z,12.80
2022-09-26T09:58:35.510Z,12.70
2022-09-26T10:01:17.810Z,12.90
2022-09-26T10:04:01.315Z,13.10
2022-09-26T10:06:45.179Z,13.10
2022-09-26T10:09:38.630Z,13.20
2022-09-26T10:12:30.597Z,13.30
2022-09-26T10:15:21.608Z,13.40
2022-09-26T10:18:26.688Z,13.40
2022-09-26T10:21:12.487Z,13.70
2022-09-26T10:23:43.167Z,13.90
2022-09-26T10:26:34.560Z,14.10
2022-09-26T10:29:21.642Z,14.40
2022-09-26T10:31:56.115Z,14.50
2022-09-26T10:34:30.808Z,14.60
2022-09-26T10:37:22.844Z,14.60
2022-09-26T10:40:15.887Z,14.80
2022-09-26T10:42:47.053Z,14.50
2022-09-26T10:45:27.123Z,14.50
2022-09-26T10:48:38.155Z,14.40
2022-09-26T10:51:37.151Z,14.50
2022-09-26T10:54:13.334Z,14.60
2022-09-26T10:56:47.384Z,14.60
2022-09-26T10:59:24.426Z,14.60
2022-09-26T11:01:56.544Z,14.40
2022-09-26T11:04:53.703Z,14.50
2022-09-26T11:07:59.515Z,14.50
2022-09-26T11:10:41.599Z,14.50
2022-09-26T11:13:24.648Z,14.70
2022-09-26T11:16:08.763Z,14.80
2022-09-26T11:18:48.401Z,14.80
2022-09-26T11:21:29.192Z,14.70
2022-09-26T11:24:21.230Z,14.70
2022-09-26T11:27:14.673Z,14.20
2022-09-26T11:29:45.162Z,14.30
2022-09-26T11:32:38.796Z,14.40
2022-09-26T11:35:33.892Z,14.40
2022-09-26T11:38:32.193Z,14.50
2022-09-26T11:41:38.872Z,14.30
2022-09-26T11:44:41.080Z,14.20
2022-09-26T11:47:50.903Z,13.90
2022-09-26T11:50:40.700Z,13.80
2022-09-26T11:53:45.904Z,13.80
2022-09-26T11:56:47.347Z,13.80
2022-09-26T11:59:32.257Z,14.00
2022-09-26T12:02:15.785Z,14.10
2022-09-26T12:05:29.744Z,14.30
2022-09-26T12:08:25.534Z,14.30
2022-09-26T12:11:10.986Z,14.10
2022-09-26T12:14:16.819Z,14.00
2022-09-26T12:16:47.989Z,13.90
2022-09-26T12:19:32.896Z,13.90
2022-09-26T12:22:29.488Z,13.90
2022-09-26T12:25:07.334Z,13.90
2022-09-26T12:27:44.014Z,13.90
2022-09-26T12:30:19.661Z,13.80
2022-09-26T12:33:08.512Z,13.90
2022-09-26T12:35:55.707Z,14.00
2022-09-26T12:38:47.694Z,13.60
2022-09-26T12:41:25.039Z,13.50
2022-09-26T12:44:40.624Z,13.40
2022-09-26T12:47:38.702Z,13.30
2022-09-26T12:50:31.009Z,13.20
2022-09-26T12:53:27.236Z,13.20
2022-09-26T12:56:40.538Z,13.10
2022-09-26T12:59:26.634Z,13.30
2022-09-26T13:02:18.714Z,13.20
2022-09-26T13:04:46.049Z,13.30
2022-09-26T13:07:29.109Z,13.20
2022-09-26T13:10:24.867Z,13.20
2022-09-26T13:13:10.063Z,13.20
2022-09-26T13:15:55.827Z,13.10
2022-09-26T13:18:33.255Z,12.90
2022-09-26T13:21:08.951Z,12.80
2022-09-26T13:23:39.316Z,12.80
2022-09-26T13:26:30.878Z,12.90
2022-09-26T13:29:28.626Z,13.00
2022-09-26T13:32:14.485Z,13.10
2022-09-26T13:34:48.170Z,13.10
2022-09-26T13:38:09.960Z,13.10
2022-09-26T13:41:10.916Z,13.00
2022-09-26T13:44:07.568Z,12.90
2022-09-26T13:46:49.298Z,12.80
2022-09-26T13:49:26.873Z,12.80
2022-09-26T13:52:32.303Z,12.80
2022-09-26T13:55:03.267Z,12.60
2022-09-26T13:57:39.662Z,12.40
2022-09-26T14:00:25.769Z,12.30
2022-09-26T14:03:16.259Z,12.30
2022-09-26T14:05:50.761Z,12.20
2022-09-26T14:08:42.727Z,12.20
2022-09-26T14:11:19.194Z,12.20
2022-09-26T14:13:48.366Z,12.10
2022-09-26T14:16:45.652Z,12.10
2022-09-26T14:19:39.312Z,12.00
2022-09-26T14:22:18.996Z,12.10
2022-09-26T14:24:50.735Z,12.00
2022-09-26T14:27:18.135Z,12.10
2022-09-26T14:29:53.093Z,12.10
2022-09-26T14:32:26.958Z,12.10
2022-09-26T14:34:54.531Z,12.10
2022-09-26T14:37:24.753Z,12.10
2022-09-26T14:39:59.545Z,12.20
2022-09-26T14:42:39.637Z,12.20
2022-09-26T14:45:18.831Z,12.30
2022-09-26T14:48:12.465Z,12.30
2022-09-26T14:50:53.898Z,12.30
2022-09-26T14:53:26.914Z,12.20
2022-09-26T14:56:01.504Z,12.20
2022-09-26T14:58:48.322Z,12.20
2022-09-26T15:01:28.135Z,12.10
2022-09-26T15:04:03.491Z,12.20
2022-09-26T15:06:39.202Z,12.20
2022-09-26T15:09:42.153Z,12.30
2022-09-26T15:12:21.218Z,12.40
2022-09-26T15:15:05.159Z,12.50
2022-09-26T15:17:37.055Z,12.40
2022-09-26T15:20:08.743Z,12.40
2022-09-26T15:22:36.033Z,12.40
2022-09-26T15:25:18.814Z,12.50
2022-09-26T15:27:49.205Z,12.40
2022-09-26T15:30:19.007Z,12.50
2022-09-26T15:32:49.038Z,12.50
2022-09-26T15:35:16.998Z,12.50
2022-09-26T15:37:45.766Z,12.50
2022-09-26T15:40:16.985Z,12.50
2022-09-26T15:43:01.548Z,12.50
2022-09-26T15:45:46.189Z,12.50
2022-09-26T15:48:19.762Z,12.40
2022-09-26T15:50:50.363Z,12.40
2022-09-26T15:53:33.576Z,12.40
2022-09-26T15:56:07.581Z,12.40
2022-09-26T15:58:53.776Z,12.40
2022-09-26T16:01:25.685Z,12.40
2022-09-26T16:04:04.888Z,12.30
2022-09-26T16:06:43.342Z,12.30
2022-09-26T16:09:22.250Z,12.20
2022-09-26T16:11:53.694Z,12.00
2022-09-26T16:14:59.082Z,11.90
2022-09-26T16:17:35.821Z,11.80
2022-09-26T16:20:18.386Z,11.90
2022-09-26T16:22:49.240Z,11.80
2022-09-26T16:25:23.887Z,11.80
2022-09-26T16:27:58.336Z,11.70
2022-09-26T16:30:25.698Z,11.70
2022-09-26T16:33:13.022Z,11.80
2022-09-26T16:35:48.172Z,11.70
2022-09-26T16:38:30.099Z,11.70
2022-09-26T16:41:10.768Z,11.70
2022-09-26T16:43:39.689Z,11.50
2022-09-26T16:46:19.109Z,11.50
2022-09-26T16:48:55.918Z,11.50
2022-09-26T16:51:27.008Z,11.50
2022-09-26T16:54:10.625Z,11.50
2022-09-26T16:56:43.044Z,11.50
2022-09-26T16:59:17.584Z,11.50
2022-09-26T17:01:54.956Z,11.50
2022-09-26T17:04:31.420Z,11.40
2022-09-26T17:07:14.065Z,11.50
2022-09-26T17:09:42.789Z,11.40
2022-09-26T17:12:21.876Z,11.50
2022-09-26T17:14:51.969Z,11.40
2022-09-26T17:17:22.236Z,11.40
2022-09-26T17:19:56.792Z,11.30
2022-09-26T17:22:26.878Z,11.30
2022-09-26T17:24:54.883Z,11.30
2022-09-26T17:27:27.082Z,11.30
2022-09-26T17:30:00.323Z,11.30
2022-09-26T17:32:32.041Z,11.30
2022-09-26T17:35:02.726Z,11.30
2022-09-26T17:37:30.192Z,11.30
2022-09-26T17:39:57.691Z,11.30
2022-09-26T17:42:25.307Z,11.30
2022-09-26T17:44:52.637Z,11.30
2022-09-26T17:47:20.115Z,11.20
2022-09-26T17:49:55.966Z,11.20
2022-09-26T17:52:28.779Z,11.20
2022-09-26T17:54:58.777Z,11.20
2022-09-26T17:57:30.006Z,11.20
2022-09-26T17:59:58.145Z,11.20
2022-09-26T18:02:37.425Z,11.20
2022-09-26T18:05:15.032Z,11.20
2022-09-26T18:07:43.423Z,11.20
2022-09-26T18:10:20.962Z,11.10
2022-09-26T18:12:57.225Z,11.10
2022-09-26T18:15:26.153Z,11.10
2022-09-26T18:17:54.074Z,11.10
2022-09-26T18:20:27.130Z,11.00
2022-09-26T18:22:54.577Z,11.00
2022-09-26T18:25:25.004Z,11.00
2022-09-26T18:27:55.723Z,11.00
2022-09-26T18:30:24.196Z,11.00
2022-09-26T18:32:56.120Z,10.90
2022-09-26T18:35:27.730Z,10.90
2022-09-26T18:37:56.060Z,10.90
2022-09-26T18:40:25.562Z,10.90
2022-09-26T18:42:55.972Z,11.00
2022-09-26T18:45:29.233Z,10.90
2022-09-26T18:47:56.992Z,11.00
2022-09-26T18:50:27.006Z,10.90
2022-09-26T18:52:54.563Z,10.90
2022-09-26T18:55:43.748Z,10.90
2022-09-26T18:58:25.423Z,10.90
2022-09-26T19:01:01.394Z,10.90
2022-09-26T19:03:36.064Z,10.90
2022-09-26T19:06:07.888Z,10.90
2022-09-26T19:08:38.914Z,10.90
2022-09-26T19:11:13.199Z,10.90
2022-09-26T19:13:41.709Z,10.90
2022-09-26T19:16:09.997Z,10.90
2022-09-26T19:18:38.405Z,10.90
2022-09-26T19:21:31.563Z,10.90
2022-09-26T19:24:08.328Z,10.90
2022-09-26T19:26:40.579Z,10.90
2022-09-26T19:29:12.977Z,10.90
2022-09-26T19:31:41.500Z,10.80
2022-09-26T19:34:14.717Z,10.90
2022-09-26T19:36:42.245Z,10.90
2022-09-26T19:39:13.418Z,10.90
2022-09-26T19:41:40.858Z,10.90
2022-09-26T19:44:08.333Z,10.80
2022-09-26T19:46:37.143Z,10.80
2022-09-26T19:49:05.882Z,10.70
2022-09-26T19:51:38.003Z,10.60
2022-09-26T19:54:06.633Z,10.50
2022-09-26T19:56:34.842Z,10.50
2022-09-26T19:59:02.155Z,10.50
2022-09-26T20:01:29.770Z,10.50
2022-09-26T20:03:57.104Z,10.50
2022-09-26T20:06:25.810Z,10.50
2022-09-26T20:09:01.787Z,10.50
2022-09-26T20:11:29.463Z,10.70
2022-09-26T20:14:15.466Z,10.70
2022-09-26T20:16:43.124Z,10.70
2022-09-26T20:19:18.735Z,10.70
2022-09-26T20:21:46.078Z,10.80
2022-09-26T20:24:18.490Z,10.90
2022-09-26T20:26:47.784Z,10.80
2022-09-26T20:29:16.820Z,10.80
2022-09-26T20:31:44.838Z,10.80
2022-09-26T20:34:12.445Z,10.80
2022-09-26T20:36:46.924Z,10.90
2022-09-26T20:39:17.758Z,10.90
2022-09-26T20:41:45.330Z,10.90
2022-09-26T20:44:27.827Z,10.80
2022-09-26T20:46:58.898Z,10.80
2022-09-26T20:49:38.211Z,10.90
2022-09-26T20:52:08.777Z,10.90
2022-09-26T20:54:36.259Z,10.90
2022-09-26T20:57:03.616Z,10.90
2022-09-26T20:59:34.853Z,10.90
2022-09-26T21:02:33.368Z,10.90
2022-09-26T21:05:01.831Z,10.90
2022-09-26T21:07:33.076Z,10.90
2022-09-26T21:10:00.467Z,10.90
2022-09-26T21:12:27.793Z,10.90
2022-09-26T21:14:55.140Z,10.90
2022-09-26T21:17:28.180Z,10.90
2022-09-26T21:19:56.197Z,10.90
2022-09-26T21:22:46.671Z,10.90
2022-09-26T21:25:19.370Z,10.90
2022-09-26T21:27:49.202Z,10.90
2022-09-26T21:30:17.416Z,10.90
2022-09-26T21:32:48.309Z,10.90
2022-09-26T21:35:18.110Z,10.90
2022-09-26T21:37:48.974Z,10.90
2022-09-26T21:40:17.037Z,10.90
2022-09-26T21:42:48.807Z,10.90
2022-09-26T21:45:17.867Z,10.90
2022-09-26T21:47:45.670Z,10.90
2022-09-26T21:50:13.299Z,10.90
2022-09-26T21:52:46.448Z,10.90
2022-09-26T21:55:18.224Z,10.80
2022-09-26T21:57:47.226Z,10.80
2022-09-26T22:00:15.423Z,10.80
2022-09-26T22:02:42.798Z,10.80
2022-09-26T22:05:11.832Z,10.80
2022-09-26T22:07:39.405Z,10.80
2022-09-26T22:10:07.130Z,10.70
2022-09-26T22:12:34.478Z,10.70
2022-09-26T22:15:01.905Z,10.70
2022-09-26T22:17:29.257Z,10.60
2022-09-26T22:19:56.587Z,10.60
2022-09-26T22:22:24.557Z,10.60
2022-09-26T22:24:53.785Z,10.50
2022-09-26T22:27:21.485Z,10.60
2022-09-26T22:29:48.805Z,10.50
2022-09-26T22:32:16.154Z,10.50
2022-09-26T22:34:43.480Z,10.50
2022-09-26T22:37:10.840Z,10.50
2022-09-26T22:39:38.139Z,10.50
2022-09-26T22:42:05.632Z,10.40
2022-09-26T22:44:33.454Z,10.40
2022-09-26T22:47:00.747Z,10.40
2022-09-26T22:49:28.631Z,10.30
2022-09-26T22:51:56.442Z,10.30
2022-09-26T22:54:23.931Z,10.30
2022-09-26T22:56:51.239Z,10.30
2022-09-26T22:59:18.633Z,10.20
2022-09-26T23:01:46.008Z,10.20
2022-09-26T23:04:13.345Z,10.20
2022-09-26T23:06:40.741Z,10.20
2022-09-26T23:09:08.122Z,10.20
2022-09-26T23:11:35.467Z,10.20
2022-09-26T23:14:02.808Z,10.20
2022-09-26T23:16:30.179Z,10.20
2022-09-26T23:18:58.146Z,10.10
2022-09-26T23:21:27.158Z,10.10
2022-09-26T23:23:56.802Z,10.10
2022-09-26T23:26:27.635Z,10.10
2022-09-26T23:28:56.379Z,10.00
2022-09-26T23:31:25.453Z,10.00
2022-09-26T23:33:53.259Z,10.00
2022-09-26T23:36:21.174Z,9.90
2022-09-26T23:38:48.616Z,9.90
2022-09-26T23:41:16.192Z,9.90
2022-09-26T23:43:44.010Z,9.90
2022-09-26T23:46:11.443Z,9.90
2022-09-26T23:48:39.453Z,9.90
2022-09-26T23:51:07.187Z,9.90
2022-09-26T23:53:34.917Z,9.90
2022-09-26T23:56:10.430Z,9.90
2022-09-26T23:58:38.322Z,9.90
